Time;durP1;ratioP1;P1;durP2;ratioP2;P2;SDS_P1;SDS_P2;PMS_P1;PMS_P2;Temp;Humidity;BMP_temperature;BMP_pressure;BME280_temperature;BME280_humidity;BME280_pressure;Samples;Min_cycle;Max_cycle;Signal;HPM_P1;HPM_P2
2022/05/01 00:01:17;;;;;;;13.55;8.57;;;8.70;78.80;;;;;;4956004;28;20455;-76
2022/05/01 00:03:44;;;;;;;13.82;10.07;;;8.70;78.70;;;;;;4955979;29;20055;-76
2022/05/01 00:06:11;;;;;;;14.88;10.43;;;8.60;78.50;;;;;;4955818;29;20029;-77
2022/05/01 00:08:39;;;;;;;14.35;10.25;;;8.60;78.90;;;;;;4955874;29;20118;-76
2022/05/01 00:11:05;;;;;;;17.02;10.50;;;8.60;79.00;;;;;;4955399;28;20450;-77
2022/05/01 00:13:32;;;;;;;15.00;10.55;;;8.50;78.90;;;;;;4955860;29;20023;-76
2022/05/01 00:15:57;;;;;;;13.73;10.90;;;8.50;79.10;;;;;;4956687;28;20101;-76
2022/05/01 00:18:23;;;;;;;17.63;11.70;;;8.40;79.10;;;;;;4955523;28;20467;-76
2022/05/01 00:20:49;;;;;;;17.50;12.32;;;8.40;79.60;;;;;;4955425;28;20030;-77
2022/05/01 00:23:14;;;;;;;15.63;11.68;;;8.20;79.90;;;;;;4955436;28;20058;-76
2022/05/01 00:25:42;;;;;;;17.10;11.80;;;8.20;80.30;;;;;;4955625;28;20027;-76
2022/05/01 00:28:14;;;;;;;14.98;12.27;;;8.10;80.70;;;;;;4955364;28;20024;-76
2022/05/01 00:30:40;;;;;;;19.92;11.90;;;8.10;80.40;;;;;;4955220;29;20516;-76
2022/05/01 00:38:36;;;;;;;19.08;13.05;;;8.10;80.70;;;;;;4956090;28;20070;-76
2022/05/01 00:41:04;;;;;;;18.52;12.40;;;8.20;80.70;;;;;;4955162;28;20031;-76
2022/05/01 00:43:31;;;;;;;19.10;11.68;;;8.10;80.60;;;;;;4954960;28;20023;-76
2022/05/01 00:45:57;;;;;;;16.63;12.43;;;8.20;80.40;;;;;;4955118;28;20031;-76
2022/05/01 00:48:22;;;;;;;14.75;10.70;;;8.10;80.60;;;;;;4955163;29;20027;-76
2022/05/01 00:50:48;;;;;;;20.00;12.60;;;8.20;80.60;;;;;;4954804;28;20031;-76
2022/05/01 00:53:14;;;;;;;16.77;11.23;;;8.20;80.40;;;;;;4954698;28;20024;-76
2022/05/01 00:55:40;;;;;;;16.00;11.75;;;8.30;80.20;;;;;;4954905;28;20104;-76
2022/05/01 00:58:07;;;;;;;17.13;11.55;;;8.30;80.00;;;;;;4954892;28;20055;-77
2022/05/01 01:00:36;;;;;;;16.08;12.35;;;8.30;79.80;;;;;;4954130;28;20106;-76
2022/05/01 01:03:02;;;;;;;21.17;12.63;;;8.30;79.60;;;;;;4954383;28;20066;-76
2022/05/01 01:05:28;;;;;;;20.70;13.40;;;8.20;79.80;;;;;;4954481;28;20066;-76
2022/05/01 01:07:54;;;;;;;14.98;12.00;;;8.00;80.40;;;;;;4954518;28;20029;-76
2022/05/01 01:10:20;;;;;;;18.00;12.93;;;7.90;81.00;;;;;;4954502;29;20445;-76
2022/05/01 01:12:53;;;;;;;16.60;12.30;;;7.90;81.30;;;;;;4955916;28;20090;-76
2022/05/01 01:15:20;;;;;;;19.40;12.50;;;7.90;81.40;;;;;;4954509;28;20043;-76
2022/05/01 01:17:52;;;;;;;16.83;12.55;;;7.90;81.40;;;;;;4954505;28;20035;-76
2022/05/01 01:20:26;;;;;;;17.85;12.80;;;8.00;81.40;;;;;;4954563;28;20019;-76
2022/05/01 01:22:54;;;;;;;17.90;11.57;;;8.10;81.10;;;;;;4954496;28;20027;-76
2022/05/01 01:25:29;;;;;;;14.85;11.02;;;8.10;81.00;;;;;;4954102;28;20046;-76
2022/05/01 01:27:59;;;;;;;16.00;10.73;;;8.20;80.70;;;;;;4954982;28;20031;-76
2022/05/01 01:33:10;;;;;;;15.73;10.80;;;8.20;80.50;;;;;;4958077;28;20100;-76
2022/05/01 01:35:38;;;;;;;18.52;11.32;;;8.30;80.20;;;;;;4955057;28;20050;-76
2022/05/01 01:38:04;;;;;;;19.73;11.95;;;8.40;80.00;;;;;;4954477;28;20047;-76
2022/05/01 01:41:00;;;;;;;14.88;11.30;;;8.30;79.80;;;;;;4954744;28;20030;-76
2022/05/01 01:43:28;;;;;;;17.35;11.25;;;8.40;79.60;;;;;;4946534;29;20039;-76
2022/05/01 01:45:57;;;;;;;16.60;10.75;;;8.40;79.80;;;;;;4954160;28;20125;-76
2022/05/01 01:48:23;;;;;;;14.70;10.80;;;8.30;79.60;;;;;;4957003;28;20027;-76
2022/05/01 01:50:59;;;;;;;16.77;11.90;;;8.40;79.60;;;;;;4954278;29;20047;-76
2022/05/01 01:53:27;;;;;;;19.65;12.15;;;8.40;79.00;;;;;;4953977;28;20038;-76
2022/05/01 01:55:53;;;;;;;18.10;12.32;;;8.30;79.50;;;;;;4953613;28;20042;-76
2022/05/01 01:58:19;;;;;;;15.52;11.52;;;8.30;79.70;;;;;;4954167;28;20026;-76
2022/05/01 02:00:45;;;;;;;15.43;11.23;;;8.20;79.60;;;;;;4954126;29;20053;-76
2022/05/01 02:03:10;;;;;;;20.15;12.23;;;8.20;79.80;;;;;;4953831;29;20019;-76
2022/05/01 02:05:36;;;;;;;18.23;12.85;;;8.20;79.90;;;;;;4953473;29;20030;-76
2022/05/01 02:08:03;;;;;;;15.73;11.73;;;8.20;79.90;;;;;;4954077;28;20027;-76
2022/05/01 02:10:28;;;;;;;16.58;11.02;;;8.30;79.80;;;;;;4953601;28;20086;-76
2022/05/01 02:12:54;;;;;;;15.43;11.05;;;8.20;79.70;;;;;;4955341;28;20031;-76
2022/05/01 02:15:20;;;;;;;18.33;11.82;;;8.30;79.80;;;;;;4957583;28;20031;-76
2022/05/01 02:17:50;;;;;;;17.20;12.20;;;8.30;80.00;;;;;;4957997;28;20037;-76
2022/05/01 02:20:15;;;;;;;19.70;13.00;;;8.30;79.90;;;;;;4957652;28;20023;-76
2022/05/01 02:22:42;;;;;;;18.40;12.90;;;8.30;79.70;;;;;;4957280;29;20114;-77
2022/05/01 02:25:09;;;;;;;20.13;13.55;;;8.30;79.70;;;;;;4957325;28;20031;-76
2022/05/01 02:27:36;;;;;;;18.73;13.07;;;8.20;79.80;;;;;;4973720;28;20114;-76
2022/05/01 02:30:01;;;;;;;21.23;13.32;;;8.10;79.90;;;;;;4957648;28;20026;-76
2022/05/01 02:32:27;;;;;;;19.50;14.30;;;8.00;80.30;;;;;;4957689;28;20035;-76
2022/05/01 02:34:52;;;;;;;24.92;17.05;;;8.00;80.40;;;;;;4957236;28;20075;-76
2022/05/01 02:37:18;;;;;;;21.70;14.77;;;7.90;80.50;;;;;;4956953;28;20393;-76
2022/05/01 02:39:43;;;;;;;24.08;15.00;;;7.90;81.00;;;;;;4957209;28;20106;-76
2022/05/01 02:42:09;;;;;;;21.20;14.02;;;7.80;81.20;;;;;;4957354;28;20034;-75
2022/05/01 02:44:35;;;;;;;19.98;14.63;;;7.90;81.30;;;;;;4957210;28;20088;-75
2022/05/01 02:47:01;;;;;;;21.75;12.80;;;7.90;82.10;;;;;;4957189;28;20039;-75
2022/05/01 02:49:26;;;;;;;16.85;12.93;;;7.90;81.10;;;;;;4957020;28;20027;-75
2022/05/01 02:51:53;;;;;;;18.42;13.35;;;7.90;81.00;;;;;;4956645;28;20023;-75
2022/05/01 02:54:21;;;;;;;19.33;12.73;;;7.90;80.90;;;;;;4957155;29;20470;-75
2022/05/01 02:56:49;;;;;;;16.85;13.13;;;7.90;80.90;;;;;;4957100;29;20039;-75
2022/05/01 02:59:15;;;;;;;15.63;11.85;;;7.90;80.90;;;;;;4957147;28;20027;-75
2022/05/01 03:01:41;;;;;;;19.08;13.60;;;7.90;81.00;;;;;;4956333;28;20544;-75
2022/05/01 03:04:06;;;;;;;21.73;12.40;;;7.90;80.80;;;;;;4957008;28;20028;-75
2022/05/01 03:06:34;;;;;;;21.00;13.48;;;7.90;80.70;;;;;;4956839;28;20027;-75
2022/05/01 03:09:00;;;;;;;16.08;12.13;;;7.90;80.60;;;;;;4956884;28;20027;-75
2022/05/01 03:11:25;;;;;;;19.08;12.52;;;7.90;80.60;;;;;;4956970;29;20458;-75
2022/05/01 03:13:51;;;;;;;19.02;12.98;;;7.90;80.70;;;;;;4956791;28;20422;-75
2022/05/01 03:16:16;;;;;;;20.52;13.45;;;7.80;80.60;;;;;;4956525;29;20398;-75
2022/05/01 03:24:10;;;;;;;20.50;13.02;;;7.50;81.70;;;;;;4956878;28;20072;-75
2022/05/01 03:26:36;;;;;;;16.33;12.50;;;7.50;81.80;;;;;;4956393;28;20063;-75
2022/05/01 03:29:02;;;;;;;20.13;13.13;;;7.50;81.90;;;;;;4956441;28;20027;-75
2022/05/01 03:31:27;;;;;;;19.42;12.65;;;7.50;81.80;;;;;;4957473;28;20027;-75
2022/05/01 03:33:54;;;;;;;17.42;12.45;;;7.50;81.80;;;;;;4956433;28;20106;-75
2022/05/01 03:36:21;;;;;;;16.63;12.73;;;7.40;81.80;;;;;;4956239;28;20036;-76
2022/05/01 03:38:47;;;;;;;17.70;11.82;;;7.50;81.80;;;;;;4955899;28;20129;-75
2022/05/01 03:41:16;;;;;;;22.70;14.13;;;7.40;81.60;;;;;;4956126;29;20474;-75
2022/05/01 03:43:43;;;;;;;23.33;13.15;;;7.40;81.70;;;;;;4956274;28;20028;-75
2022/05/01 03:46:10;;;;;;;21.17;13.85;;;7.30;82.10;;;;;;4955969;28;20024;-75
2022/05/01 03:48:36;;;;;;;19.33;13.02;;;7.20;82.10;;;;;;4956066;28;20110;-74
2022/05/01 03:51:02;;;;;;;19.25;13.13;;;7.10;82.50;;;;;;4956033;28;20065;-74
2022/05/01 03:53:29;;;;;;;16.17;11.70;;;7.10;82.50;;;;;;4955799;28;20093;-76
2022/05/01 03:55:55;;;;;;;19.67;12.65;;;7.10;82.60;;;;;;4955839;29;20042;-75
2022/05/01 03:58:21;;;;;;;15.23;11.57;;;7.10;82.70;;;;;;4955745;28;20027;-76
2022/05/01 04:00:47;;;;;;;15.07;11.35;;;7.10;82.70;;;;;;4955966;28;20027;-76
2022/05/01 04:03:19;;;;;;;16.05;12.00;;;7.10;82.60;;;;;;4955691;28;20027;-76
2022/05/01 04:05:45;;;;;;;17.48;12.10;;;7.20;82.40;;;;;;4955836;28;20071;-76
2022/05/01 04:08:11;;;;;;;17.88;11.57;;;7.10;82.20;;;;;;4955431;28;20059;-76
2022/05/01 04:10:43;;;;;;;17.45;12.57;;;7.10;82.10;;;;;;4955708;28;20025;-76
2022/05/01 04:13:10;;;;;;;20.85;13.30;;;7.10;82.10;;;;;;4955624;29;20488;-76
2022/05/01 04:15:36;;;;;;;19.30;13.32;;;7.10;82.10;;;;;;4955630;28;20103;-75
2022/05/01 04:18:06;;;;;;;20.92;13.60;;;7.10;82.10;;;;;;4955751;28;20035;-75
2022/05/01 04:20:38;;;;;;;20.88;14.43;;;7.00;81.90;;;;;;4955314;28;20026;-74
2022/05/01 04:23:06;;;;;;;21.88;14.57;;;7.00;81.90;;;;;;4955657;29;20032;-75
2022/05/01 04:25:32;;;;;;;22.02;13.93;;;6.90;81.70;;;;;;4955512;28;20501;-75
2022/05/01 04:28:00;;;;;;;17.83;12.40;;;6.90;81.70;;;;;;4955510;29;20485;-75
2022/05/01 04:30:27;;;;;;;22.10;13.95;;;6.90;81.60;;;;;;4955325;28;20031;-75
2022/05/01 04:32:58;;;;;;;18.40;12.80;;;6.90;81.60;;;;;;4955207;28;20027;-74
2022/05/01 04:35:29;;;;;;;23.10;15.13;;;6.90;81.50;;;;;;4954935;28;20042;-74
2022/05/01 04:37:59;;;;;;;20.80;14.27;;;6.80;81.10;;;;;;4955174;28;20051;-75
2022/05/01 04:40:28;;;;;;;20.42;13.93;;;6.70;81.10;;;;;;4954973;28;20031;-74
2022/05/01 04:43:03;;;;;;;23.67;14.40;;;6.60;81.70;;;;;;4955187;28;20455;-75
2022/05/01 04:45:30;;;;;;;22.60;14.07;;;6.60;81.80;;;;;;4955095;28;20030;-74
2022/05/01 04:47:56;;;;;;;20.13;13.63;;;6.60;81.70;;;;;;4954734;28;20126;-74
2022/05/01 04:50:22;;;;;;;19.92;14.05;;;6.60;81.70;;;;;;4954526;28;20489;-74
2022/05/01 04:52:47;;;;;;;21.52;14.90;;;6.60;81.50;;;;;;4954601;28;20354;-75
2022/05/01 04:55:13;;;;;;;21.23;14.20;;;6.60;81.60;;;;;;4954764;28;20046;-75
2022/05/01 04:57:39;;;;;;;21.40;14.75;;;6.60;81.30;;;;;;4954786;28;20116;-74
2022/05/01 05:00:07;;;;;;;22.88;14.30;;;6.60;80.90;;;;;;4954294;28;20074;-77
2022/05/01 05:02:41;;;;;;;21.13;14.82;;;6.70;81.00;;;;;;4954178;28;20034;-77
2022/05/01 05:05:12;;;;;;;23.40;14.52;;;6.70;80.90;;;;;;4954633;29;20028;-77
2022/05/01 05:07:39;;;;;;;22.35;14.23;;;6.70;81.00;;;;;;4954687;29;20035;-75
2022/05/01 05:10:07;;;;;;;21.50;14.95;;;6.80;81.00;;;;;;4954592;28;20389;-75
2022/05/01 05:12:34;;;;;;;22.55;14.30;;;6.80;80.60;;;;;;4953830;29;20078;-77
2022/05/01 05:15:00;;;;;;;19.63;13.60;;;6.90;80.70;;;;;;4954548;28;20034;-75
2022/05/01 05:17:27;;;;;;;24.08;14.95;;;6.90;80.70;;;;;;4954084;28;20046;-75
2022/05/01 05:19:54;;;;;;;20.50;14.10;;;6.90;80.60;;;;;;4954127;28;20051;-75
2022/05/01 05:22:20;;;;;;;20.60;14.05;;;7.00;80.60;;;;;;4954570;29;20035;-76
2022/05/01 05:24:45;;;;;;;22.02;15.18;;;7.00;80.60;;;;;;4954141;28;20031;-75
2022/05/01 05:27:11;;;;;;;22.92;14.85;;;7.10;80.50;;;;;;4954432;28;20377;-75
2022/05/01 05:29:38;;;;;;;20.30;13.45;;;7.10;80.70;;;;;;4954375;28;20082;-75
2022/05/01 05:32:04;;;;;;;20.13;13.80;;;7.20;80.40;;;;;;4954000;28;20050;-76
2022/05/01 05:34:30;;;;;;;23.20;14.13;;;7.30;80.40;;;;;;4953907;28;20039;-76
2022/05/01 05:36:56;;;;;;;22.15;14.77;;;7.30;79.90;;;;;;4954146;28;20551;-76
2022/05/01 05:39:22;;;;;;;22.05;14.38;;;7.30;79.60;;;;;;4954065;28;20094;-75
2022/05/01 05:41:47;;;;;;;25.10;16.42;;;7.40;79.60;;;;;;4954031;28;20101;-75
2022/05/01 05:44:13;;;;;;;24.88;15.65;;;7.40;79.40;;;;;;4953952;28;20474;-74
2022/05/01 05:46:39;;;;;;;24.38;15.77;;;7.40;79.40;;;;;;4953812;28;20023;-74
2022/05/01 05:49:04;;;;;;;20.85;13.85;;;7.40;79.30;;;;;;4953715;29;20028;-75
2022/05/01 05:51:30;;;;;;;22.75;15.48;;;7.50;79.50;;;;;;4953911;28;20038;-75
2022/05/01 05:53:56;;;;;;;22.33;14.77;;;7.60;79.00;;;;;;4953943;28;20470;-76
2022/05/01 05:56:23;;;;;;;25.38;16.88;;;7.60;79.20;;;;;;4953689;28;20482;-75
2022/05/01 05:58:50;;;;;;;24.95;16.65;;;7.70;78.70;;;;;;4953595;28;20122;-75
2022/05/01 06:01:16;;;;;;;29.08;15.70;;;7.80;78.70;;;;;;4953761;28;20405;-77
2022/05/01 06:03:42;;;;;;;25.30;15.95;;;7.90;79.90;;;;;;4953445;28;20019;-78
2022/05/01 06:06:08;;;;;;;24.27;16.05;;;8.10;78.60;;;;;;4953897;28;20035;-77
2022/05/01 06:08:38;;;;;;;26.23;15.00;;;8.30;78.00;;;;;;4953827;28;20378;-75
2022/05/01 06:11:04;;;;;;;21.92;14.73;;;8.60;77.60;;;;;;4953752;28;20031;-75
2022/05/01 06:13:30;;;;;;;20.25;13.65;;;8.80;76.90;;;;;;4953517;28;20095;-76
2022/05/01 06:15:55;;;;;;;21.85;14.90;;;9.10;75.90;;;;;;4953328;28;20134;-76
2022/05/01 06:18:21;;;;;;;21.65;13.75;;;9.20;74.70;;;;;;4953750;28;20028;-77
2022/05/01 06:20:47;;;;;;;19.02;13.77;;;9.30;74.40;;;;;;4953685;28;20045;-76
2022/05/01 06:23:13;;;;;;;22.58;12.95;;;9.40;74.00;;;;;;4953790;28;20026;-76
2022/05/01 06:25:39;;;;;;;16.10;11.75;;;9.50;73.80;;;;;;4953598;28;20028;-77
2022/05/01 06:28:05;;;;;;;15.77;11.95;;;9.80;73.50;;;;;;4953395;28;20026;-77
2022/05/01 06:30:32;;;;;;;21.25;13.25;;;10.00;73.10;;;;;;4953261;29;20019;-77
2022/05/01 06:32:57;;;;;;;19.15;13.73;;;10.20;72.40;;;;;;4953510;28;20481;-76
2022/05/01 06:35:24;;;;;;;20.30;14.38;;;10.20;71.40;;;;;;4953463;28;20066;-76
2022/05/01 06:37:50;;;;;;;21.67;14.30;;;10.30;71.20;;;;;;4953444;28;20517;-77
2022/05/01 06:40:16;;;;;;;15.85;11.90;;;10.40;70.40;;;;;;4953316;28;20035;-77
2022/05/01 06:42:42;;;;;;;19.83;13.25;;;10.40;70.70;;;;;;4953455;29;20055;-76
2022/05/01 06:45:08;;;;;;;16.23;12.15;;;10.60;70.40;;;;;;4953240;28;20027;-77
2022/05/01 06:47:33;;;;;;;17.77;12.35;;;10.70;70.20;;;;;;4954552;28;20031;-76
2022/05/01 06:49:59;;;;;;;19.08;13.57;;;10.80;69.60;;;;;;4953393;28;20027;-77
2022/05/01 06:52:25;;;;;;;17.80;13.35;;;10.90;69.20;;;;;;4953217;28;20110;-76
2022/05/01 06:54:51;;;;;;;16.63;12.35;;;10.80;68.40;;;;;;4953456;28;20023;-77
2022/05/01 06:57:17;;;;;;;18.75;13.20;;;10.90;68.60;;;;;;4953359;29;20035;-77
2022/05/01 06:59:42;;;;;;;19.33;12.20;;;10.90;68.70;;;;;;4955666;28;20034;-77
2022/05/01 07:02:08;;;;;;;18.15;12.60;;;10.80;69.00;;;;;;4956493;28;20031;-77
2022/05/01 07:04:34;;;;;;;15.55;11.30;;;11.00;69.80;;;;;;4956953;28;20030;-77
2022/05/01 07:06:59;;;;;;;20.58;13.15;;;11.10;69.80;;;;;;4956690;28;20090;-76
2022/05/01 07:09:25;;;;;;;16.65;13.18;;;11.20;68.90;;;;;;4956712;28;20027;-76
2022/05/01 07:11:51;;;;;;;17.25;12.77;;;10.80;69.50;;;;;;4956723;28;20071;-76
2022/05/01 07:14:16;;;;;;;18.15;13.55;;;10.50;70.60;;;;;;4956589;28;20019;-76
2022/05/01 07:16:42;;;;;;;17.75;13.30;;;10.50;71.30;;;;;;4956615;28;20035;-76
2022/05/01 07:19:07;;;;;;;24.52;16.73;;;10.40;72.30;;;;;;4956670;28;20114;-74
2022/05/01 07:21:33;;;;;;;22.50;14.40;;;10.30;71.60;;;;;;4956795;28;20509;-74
2022/05/01 07:23:58;;;;;;;20.25;13.90;;;10.40;73.50;;;;;;4956556;28;20059;-74
2022/05/01 07:26:25;;;;;;;18.60;12.88;;;10.40;71.40;;;;;;4956284;28;20497;-74
2022/05/01 07:28:51;;;;;;;16.85;12.60;;;10.50;71.30;;;;;;4956670;29;20023;-73
2022/05/01 07:31:17;;;;;;;16.45;12.35;;;10.60;71.00;;;;;;4956513;29;20085;-73
2022/05/01 07:33:42;;;;;;;22.85;11.25;;;10.70;71.10;;;;;;4956378;29;20106;-74
2022/05/01 07:36:08;;;;;;;20.52;12.73;;;11.00;74.90;;;;;;4956172;28;20039;-73
2022/05/01 07:38:33;;;;;;;16.08;11.32;;;11.30;72.00;;;;;;4956294;28;20059;-73
2022/05/01 07:40:59;;;;;;;18.02;11.13;;;11.80;70.30;;;;;;4956193;29;20028;-73
2022/05/01 07:43:25;;;;;;;17.92;11.30;;;12.10;67.30;;;;;;4956026;29;20392;-74
2022/05/01 07:45:50;;;;;;;14.57;9.45;;;12.40;66.90;;;;;;4955872;28;20504;-74
2022/05/01 07:48:16;;;;;;;15.63;9.52;;;12.60;65.00;;;;;;4956279;28;20550;-74
2022/05/01 07:50:42;;;;;;;13.98;10.95;;;12.70;64.40;;;;;;4956158;29;20492;-74
2022/05/01 07:53:07;;;;;;;13.38;8.73;;;12.90;63.80;;;;;;4955570;29;20050;-74
2022/05/01 07:55:33;;;;;;;14.05;8.98;;;13.00;62.70;;;;;;4955922;29;20031;-73
2022/05/01 07:57:59;;;;;;;12.00;8.82;;;13.30;62.30;;;;;;4956164;28;20470;-73
2022/05/01 08:00:24;;;;;;;11.95;8.32;;;13.50;60.80;;;;;;4955665;28;20394;-74
2022/05/01 08:05:34;;;;;;;15.02;9.43;;;13.70;59.70;;;;;;4957184;28;20103;-73
2022/05/01 08:07:59;;;;;;;13.80;9.50;;;14.00;58.80;;;;;;4956283;29;20465;-77
2022/05/01 08:10:25;;;;;;;13.82;9.77;;;14.20;57.80;;;;;;4955032;28;20062;-80
2022/05/01 08:12:51;;;;;;;10.00;8.70;;;14.10;57.20;;;;;;4955735;28;20027;-78
2022/05/01 08:15:18;;;;;;;12.48;9.65;;;14.00;57.30;;;;;;4956270;28;20121;-81
2022/05/01 08:17:45;;;;;;;16.20;12.02;;;13.90;57.90;;;;;;4956287;28;20493;-82
2022/05/01 08:23:06;;;;;;;12.38;9.27;;;13.50;59.00;;;;;;4956640;28;20038;-80
2022/05/01 08:25:32;;;;;;;14.27;9.65;;;13.50;59.40;;;;;;4955668;28;20058;-81
2022/05/01 08:27:58;;;;;;;14.48;10.27;;;13.40;59.40;;;;;;4955443;28;20031;-81
2022/05/01 08:30:23;;;;;;;13.02;10.15;;;13.40;60.00;;;;;;4955452;28;20438;-81
2022/05/01 08:32:49;;;;;;;15.20;9.82;;;13.20;60.20;;;;;;4954972;28;20039;-81
2022/05/01 08:35:15;;;;;;;11.30;8.85;;;13.30;60.70;;;;;;4956487;28;20513;-81
2022/05/01 08:37:40;;;;;;;14.20;10.25;;;13.50;60.50;;;;;;4954951;29;20054;-81
2022/05/01 08:40:08;;;;;;;14.93;10.88;;;13.50;58.90;;;;;;4954832;28;20067;-80
2022/05/01 08:42:39;;;;;;;13.23;10.85;;;13.40;58.70;;;;;;4956252;28;20035;-80
2022/05/01 08:45:08;;;;;;;15.00;11.65;;;13.00;61.00;;;;;;4955282;29;20027;-81
2022/05/01 08:47:40;;;;;;;13.70;10.90;;;13.10;62.00;;;;;;4954872;28;20040;-80
2022/05/01 08:50:09;;;;;;;15.27;11.15;;;13.10;61.90;;;;;;4955111;29;20110;-80
2022/05/01 08:52:38;;;;;;;18.35;11.30;;;13.20;63.40;;;;;;4955214;28;20030;-80
2022/05/01 08:55:08;;;;;;;13.30;10.00;;;13.40;61.50;;;;;;4955115;29;20481;-80
2022/05/01 08:57:34;;;;;;;14.95;11.38;;;13.10;61.20;;;;;;4954215;28;20141;-80
2022/05/01 09:00:00;;;;;;;12.52;9.75;;;12.90;61.40;;;;;;4954419;28;20113;-80
2022/05/01 09:02:26;;;;;;;16.85;11.85;;;13.00;61.40;;;;;;4954692;28;20114;-80
2022/05/01 09:04:53;;;;;;;13.57;11.10;;;12.70;61.10;;;;;;4954885;28;20023;-81
2022/05/01 09:07:18;;;;;;;13.38;10.50;;;12.20;63.70;;;;;;4954665;29;20470;-80
2022/05/01 09:09:44;;;;;;;15.13;11.43;;;12.50;63.90;;;;;;4954496;28;20121;-80
2022/05/01 09:14:58;;;;;;;15.77;10.88;;;12.80;62.30;;;;;;4956103;28;20421;-81
2022/05/01 09:17:24;;;;;;;16.38;11.32;;;12.90;62.10;;;;;;4954249;28;20035;-80
2022/05/01 09:20:04;;;;;;;15.70;11.02;;;12.80;64.10;;;;;;4954360;28;20032;-81
2022/05/01 09:22:50;;;;;;;13.98;10.82;;;13.10;63.40;;;;;;4969719;28;20027;-79
2022/05/01 09:25:17;;;;;;;14.10;10.77;;;13.10;61.70;;;;;;4953910;29;20035;-80
2022/05/01 09:27:43;;;;;;;13.85;10.73;;;13.40;61.80;;;;;;4954095;28;20457;-78
2022/05/01 09:30:16;;;;;;;16.33;10.85;;;13.40;60.80;;;;;;4954446;29;20023;-78
2022/05/01 09:32:42;;;;;;;14.85;11.07;;;13.50;60.70;;;;;;4954249;28;20027;-78
2022/05/01 09:35:13;;;;;;;12.70;10.82;;;13.60;61.30;;;;;;4954084;28;20031;-80
2022/05/01 09:37:39;;;;;;;13.65;10.23;;;13.60;60.50;;;;;;4953848;28;20062;-79
2022/05/01 09:40:05;;;;;;;13.52;10.32;;;13.60;59.30;;;;;;4954013;29;20414;-80
2022/05/01 09:42:35;;;;;;;12.82;10.13;;;13.50;59.80;;;;;;4953867;28;20027;-80
2022/05/01 09:45:15;;;;;;;16.73;10.77;;;13.40;59.30;;;;;;4954007;28;20134;-81
2022/05/01 09:47:45;;;;;;;14.05;9.55;;;13.00;60.30;;;;;;4954017;28;20019;-78
2022/05/01 09:50:12;;;;;;;15.95;10.48;;;12.90;60.20;;;;;;4954068;28;20031;-79
2022/05/01 09:53:01;;;;;;;13.82;9.65;;;13.00;60.50;;;;;;4954242;28;20541;-79
2022/05/01 09:55:29;;;;;;;14.10;9.80;;;13.20;60.70;;;;;;4953954;28;20450;-78
2022/05/01 09:58:13;;;;;;;15.57;11.68;;;13.30;61.00;;;;;;4970159;28;20031;-79
2022/05/01 10:00:42;;;;;;;14.52;10.93;;;13.30;60.20;;;;;;4954268;29;20023;-79
2022/05/01 10:03:42;;;;;;;15.88;10.55;;;12.90;60.40;;;;;;4953679;28;20020;-80
2022/05/01 10:06:12;;;;;;;17.88;10.40;;;12.80;62.10;;;;;;4946822;29;20489;-81
2022/05/01 10:08:39;;;;;;;12.88;10.07;;;12.80;62.30;;;;;;4953475;28;20035;-81
2022/05/01 10:11:05;;;;;;;13.07;9.00;;;12.90;62.70;;;;;;4953639;28;20027;-80
2022/05/01 10:13:32;;;;;;;13.75;9.00;;;13.00;62.10;;;;;;4953269;28;20027;-79
2022/05/01 10:15:59;;;;;;;12.77;9.05;;;13.10;62.00;;;;;;4954072;28;20481;-79
2022/05/01 10:18:25;;;;;;;14.48;9.15;;;13.10;61.80;;;;;;4954601;28;20393;-80
2022/05/01 10:20:51;;;;;;;16.40;10.82;;;13.20;61.20;;;;;;4953573;28;20049;-80
2022/05/01 10:23:17;;;;;;;14.15;9.63;;;13.30;60.90;;;;;;4953635;28;20024;-80
2022/05/01 10:25:56;;;;;;;14.57;9.55;;;13.30;60.80;;;;;;4953610;28;20023;-80
2022/05/01 10:28:40;;;;;;;12.40;8.63;;;13.50;59.50;;;;;;4953538;29;20513;-79
2022/05/01 10:34:36;;;;;;;12.48;9.55;;;13.50;59.60;;;;;;4956828;28;20110;-77
2022/05/01 10:37:30;;;;;;;12.20;8.90;;;13.60;59.10;;;;;;4957213;28;20410;-78
2022/05/01 10:39:57;;;;;;;12.38;9.23;;;13.70;58.70;;;;;;4957332;28;20027;-78
2022/05/01 10:42:33;;;;;;;10.18;8.20;;;13.80;58.60;;;;;;4956777;28;20023;-78
2022/05/01 10:44:59;;;;;;;12.65;8.60;;;14.00;57.80;;;;;;4957132;28;20118;-77
2022/05/01 10:47:36;;;;;;;10.98;8.27;;;14.10;57.80;;;;;;4957186;28;20118;-77
2022/05/01 10:50:07;;;;;;;9.50;7.88;;;14.30;57.60;;;;;;4957158;28;20032;-77
2022/05/01 10:52:33;;;;;;;14.35;8.90;;;14.50;56.70;;;;;;4958218;28;20023;-77
2022/05/01 10:55:05;;;;;;;11.18;8.68;;;14.60;56.60;;;;;;4956580;28;20031;-78
2022/05/01 10:57:31;;;;;;;9.52;7.75;;;14.70;56.50;;;;;;4956635;28;20039;-78
2022/05/01 11:00:11;;;;;;;10.13;7.38;;;14.90;56.00;;;;;;4956955;28;20055;-79
2022/05/01 11:02:46;;;;;;;11.73;8.40;;;15.10;55.00;;;;;;4957140;29;20489;-79
2022/05/01 11:05:42;;;;;;;10.35;7.65;;;15.30;53.30;;;;;;4956804;28;20039;-78
2022/05/01 11:08:36;;;;;;;10.93;8.07;;;15.50;53.30;;;;;;4973205;28;20478;-78
2022/05/01 11:11:05;;;;;;;12.20;8.35;;;15.60;52.90;;;;;;4954585;28;20121;-78
2022/05/01 11:13:33;;;;;;;9.85;7.40;;;15.70;51.40;;;;;;4956590;28;20027;-77
2022/05/01 11:15:59;;;;;;;17.10;10.90;;;15.60;51.10;;;;;;4956379;28;20086;-76
2022/05/01 11:18:50;;;;;;;11.77;9.43;;;15.40;50.50;;;;;;4956721;28;20114;-78
2022/05/01 11:21:21;;;;;;;13.27;8.93;;;15.30;53.10;;;;;;4949718;29;20236;-79
2022/05/01 11:23:58;;;;;;;11.90;9.10;;;15.40;52.20;;;;;;4956563;28;20034;-75
2022/05/01 11:26:24;;;;;;;9.57;7.60;;;15.50;51.50;;;;;;4958702;28;20516;-79
2022/05/01 11:28:56;;;;;;;10.63;9.00;;;15.60;52.00;;;;;;4968079;28;20035;-78
2022/05/01 11:31:40;;;;;;;11.88;9.68;;;15.70;50.60;;;;;;4976027;28;20022;-78
2022/05/01 11:34:24;;;;;;;14.90;9.63;;;15.70;51.20;;;;;;4975408;28;20026;-76
2022/05/01 11:36:50;;;;;;;12.43;9.05;;;15.70;51.00;;;;;;4975323;28;20034;-77
2022/05/01 11:39:16;;;;;;;13.88;9.55;;;15.80;49.90;;;;;;4975290;28;20053;-76
2022/05/01 11:41:42;;;;;;;13.20;9.02;;;15.80;50.60;;;;;;4975521;28;20117;-75
2022/05/01 11:44:24;;;;;;;14.68;8.65;;;15.70;50.00;;;;;;4975504;28;20022;-83
2022/05/01 11:46:51;;;;;;;13.63;9.52;;;15.70;49.60;;;;;;4974722;28;20037;-79
2022/05/01 11:49:16;;;;;;;10.82;7.65;;;15.30;50.50;;;;;;4975529;28;20037;-79
2022/05/01 11:51:44;;;;;;;11.98;9.88;;;15.40;51.20;;;;;;4975153;28;20022;-81
2022/05/01 11:54:10;;;;;;;11.93;8.98;;;15.40;49.90;;;;;;4975107;28;20057;-79
2022/05/01 12:02:25;;;;;;;11.77;8.18;;;15.60;49.80;;;;;;4976601;28;20078;-79
2022/05/01 12:04:57;;;;;;;9.73;7.38;;;15.90;47.60;;;;;;4975060;28;20477;-80
2022/05/01 12:07:23;;;;;;;10.15;7.25;;;16.00;49.30;;;;;;4974994;28;20043;-80
2022/05/01 12:09:51;;;;;;;10.35;8.30;;;16.50;46.70;;;;;;4975215;28;20030;-77
2022/05/01 12:12:19;;;;;;;9.52;7.97;;;16.40;45.00;;;;;;4974747;28;20057;-79
2022/05/01 12:14:47;;;;;;;11.57;8.50;;;16.20;46.10;;;;;;4975158;28;20105;-79
2022/05/01 12:17:21;;;;;;;16.75;8.43;;;16.20;47.00;;;;;;4974658;28;20454;-79
2022/05/01 12:19:48;;;;;;;12.07;7.85;;;16.10;47.10;;;;;;4974760;28;20026;-79
2022/05/01 12:22:19;;;;;;;8.35;7.13;;;15.80;48.90;;;;;;4974922;28;20031;-80
2022/05/01 12:24:46;;;;;;;7.10;5.78;;;16.20;48.00;;;;;;4974527;28;20046;-79
2022/05/01 12:27:13;;;;;;;11.02;7.63;;;17.00;47.80;;;;;;4974528;28;20027;-79
2022/05/01 12:29:47;;;;;;;10.45;6.22;;;17.50;45.40;;;;;;4990750;28;20026;-80
2022/05/01 12:32:14;;;;;;;8.25;6.70;;;17.60;42.30;;;;;;4974725;28;20026;-80
2022/05/01 12:34:56;;;;;;;9.85;6.22;;;17.50;42.00;;;;;;4975923;28;20031;-80
2022/05/01 12:37:26;;;;;;;8.73;6.70;;;17.70;42.80;;;;;;4974248;28;20070;-80
2022/05/01 12:40:03;;;;;;;11.80;7.45;;;17.90;42.10;;;;;;4974084;28;20052;-79
2022/05/01 12:45:35;;;;;;;9.02;7.20;;;17.50;42.10;;;;;;4975566;28;20030;-79
2022/05/01 12:48:03;;;;;;;6.95;6.10;;;17.50;41.70;;;;;;4974461;28;20026;-80
2022/05/01 12:50:29;;;;;;;10.98;5.95;;;17.60;42.10;;;;;;4974579;28;20528;-79
2022/05/01 12:52:59;;;;;;;8.13;5.75;;;18.00;42.80;;;;;;4974414;28;20504;-80
2022/05/01 12:55:33;;;;;;;6.53;5.65;;;18.40;42.10;;;;;;4974025;28;20026;-79
2022/05/01 12:58:00;;;;;;;9.68;6.35;;;18.10;39.90;;;;;;4973923;28;20030;-79
2022/05/01 13:00:29;;;;;;;10.82;7.30;;;18.00;40.30;;;;;;4974061;28;20030;-80
2022/05/01 13:03:28;;;;;;;6.22;5.60;;;17.90;41.80;;;;;;4974155;28;20428;-79
2022/05/01 13:06:11;;;;;;;8.77;5.30;;;17.80;42.90;;;;;;4974004;28;20126;-80
2022/05/01 13:08:48;;;;;;;8.40;6.10;;;18.00;42.10;;;;;;4973810;28;20038;-79
2022/05/01 13:11:15;;;;;;;9.18;5.88;;;18.10;41.90;;;;;;4974124;28;20090;-79
2022/05/01 13:13:46;;;;;;;7.63;5.85;;;18.10;41.60;;;;;;4974218;28;20027;-79
2022/05/01 13:16:12;;;;;;;7.55;5.85;;;18.00;41.30;;;;;;4973855;28;20085;-79